createdAt,value
2023-02-19T00:00:21.048Z,13.36
2023-02-19T00:01:19.995Z,13.37
2023-02-19T00:02:20.054Z,13.40
2023-02-19T00:03:19.977Z,13.41
2023-02-19T00:04:20.092Z,13.38
2023-02-19T00:05:19.914Z,13.34
2023-02-19T00:06:22.124Z,13.31
2023-02-19T00:07:19.888Z,13.28
2023-02-19T00:08:19.955Z,13.26
2023-02-19T00:09:19.858Z,13.25
2023-02-19T00:10:19.899Z,13.26
2023-02-19T00:11:19.826Z,13.29
2023-02-19T00:12:40.965Z,13.30
2023-02-19T00:13:19.796Z,13.29
2023-02-19T00:14:19.972Z,13.29
2023-02-19T00:15:19.763Z,13.26
2023-02-19T00:16:21.896Z,13.22
2023-02-19T00:17:19.743Z,13.19
2023-02-19T00:18:19.884Z,13.18
2023-02-19T00:19:19.731Z,13.18
2023-02-19T00:20:19.777Z,13.18
2023-02-19T00:21:19.702Z,13.18
2023-02-19T00:22:19.806Z,13.20
2023-02-19T00:23:19.665Z,13.20
2023-02-19T00:24:19.796Z,13.22
2023-02-19T00:25:19.614Z,13.23
2023-02-19T00:26:40.762Z,13.22
2023-02-19T00:27:19.603Z,13.19
2023-02-19T00:29:29.196Z,12.58
2023-02-19T00:30:29.006Z,12.58
2023-02-19T00:31:32.989Z,12.81
2023-02-19T00:32:28.956Z,12.93
2023-02-19T00:33:29.068Z,13.01
2023-02-19T00:34:28.928Z,13.05
2023-02-19T00:35:29.048Z,13.06
2023-02-19T00:36:28.908Z,13.07
2023-02-19T00:37:29.039Z,13.06
2023-02-19T00:38:28.880Z,13.05
2023-02-19T00:39:29.069Z,13.03
2023-02-19T00:40:28.859Z,13.03
2023-02-19T00:41:28.973Z,13.03
2023-02-19T00:42:28.829Z,13.04
2023-02-19T00:43:28.939Z,13.02
2023-02-19T00:44:28.812Z,13.00
2023-02-19T00:45:30.980Z,12.99
2023-02-19T00:46:28.845Z,12.97
2023-02-19T00:47:28.969Z,12.96
2023-02-19T00:48:28.754Z,12.94
2023-02-19T00:49:29.002Z,12.92
2023-02-19T00:50:28.778Z,12.92
2023-02-19T00:51:28.801Z,12.92
2023-02-19T00:52:28.698Z,12.90
2023-02-19T00:53:28.796Z,12.86
2023-02-19T00:54:28.686Z,12.82
2023-02-19T00:55:29.137Z,12.76
2023-02-19T00:56:28.699Z,12.72
2023-02-19T00:57:29.875Z,12.69
2023-02-19T00:58:28.619Z,12.66
2023-02-19T00:59:28.681Z,12.64
2023-02-19T01:00:28.590Z,12.64
2023-02-19T01:01:28.696Z,12.62
2023-02-19T01:02:28.563Z,12.58
2023-02-19T01:03:50.698Z,12.55
2023-02-19T01:04:28.624Z,12.54
2023-02-19T01:05:28.679Z,12.55
2023-02-19T01:06:28.508Z,12.54
2023-02-19T01:07:28.661Z,12.54
2023-02-19T01:08:28.498Z,12.55
2023-02-19T01:09:29.518Z,12.55
2023-02-19T01:10:28.447Z,12.53
2023-02-19T01:11:28.587Z,12.52
2023-02-19T01:12:28.429Z,12.48
2023-02-19T01:13:28.571Z,12.47
2023-02-19T01:14:28.396Z,12.45
2023-02-19T01:15:28.506Z,12.45
2023-02-19T01:16:28.522Z,12.45
2023-02-19T01:17:28.488Z,12.45
2023-02-19T01:18:28.440Z,12.44
2023-02-19T01:19:28.481Z,12.42
2023-02-19T01:20:28.315Z,12.39
2023-02-19T01:21:28.416Z,12.36
2023-02-19T01:22:28.306Z,12.36
2023-02-19T01:23:28.396Z,12.35
2023-02-19T01:24:28.265Z,12.34
2023-02-19T01:25:28.382Z,12.33
2023-02-19T01:26:28.235Z,12.32
2023-02-19T01:27:28.305Z,12.31
2023-02-19T01:28:28.205Z,12.32
2023-02-19T01:29:28.306Z,12.31
2023-02-19T01:30:28.220Z,12.29
2023-02-19T01:31:28.389Z,12.32
2023-02-19T01:32:28.169Z,12.35
2023-02-19T01:33:30.315Z,12.37
2023-02-19T01:34:28.141Z,12.36
2023-02-19T01:35:28.205Z,12.35
2023-02-19T01:36:28.140Z,12.36
2023-02-19T01:37:29.206Z,12.35
2023-02-19T01:38:28.093Z,12.31
2023-02-19T01:39:28.235Z,12.28
2023-02-19T01:40:28.059Z,12.27
2023-02-19T01:41:28.219Z,12.27
2023-02-19T01:42:28.027Z,12.27
2023-02-19T01:43:28.199Z,12.25
2023-02-19T01:44:28.001Z,12.23
2023-02-19T01:45:28.030Z,12.22
2023-02-19T01:46:28.026Z,12.21
2023-02-19T01:47:28.119Z,12.19
2023-02-19T01:48:27.951Z,12.18
2023-02-19T01:49:28.115Z,12.17
2023-02-19T01:50:27.918Z,12.18
2023-02-19T01:51:28.036Z,12.16
2023-02-19T01:52:27.888Z,12.13
2023-02-19T01:53:28.025Z,12.08
2023-02-19T01:54:27.879Z,12.01
2023-02-19T01:55:27.908Z,11.95
2023-02-19T01:56:27.844Z,11.87
2023-02-19T01:57:27.952Z,11.80
2023-02-19T01:58:27.822Z,11.73
2023-02-19T01:59:27.928Z,11.68
2023-02-19T02:00:27.859Z,11.62
2023-02-19T02:01:30.025Z,11.54
2023-02-19T02:02:27.758Z,11.48
2023-02-19T02:03:27.849Z,11.44
2023-02-19T02:04:27.748Z,11.43
2023-02-19T02:05:28.861Z,11.44
2023-02-19T02:06:27.711Z,11.49
2023-02-19T02:08:36.487Z,11.09
2023-02-19T02:09:36.378Z,11.09
2023-02-19T02:10:39.639Z,11.35
2023-02-19T02:11:36.362Z,11.53
2023-02-19T02:12:36.462Z,11.62
2023-02-19T02:13:36.329Z,11.69
2023-02-19T02:14:36.499Z,11.76
2023-02-19T02:15:36.300Z,11.82
2023-02-19T02:16:37.515Z,11.88
2023-02-19T02:17:36.284Z,11.95
2023-02-19T02:18:36.361Z,12.01
2023-02-19T02:19:36.257Z,12.07
2023-02-19T02:20:36.301Z,12.11
2023-02-19T02:21:36.233Z,12.12
2023-02-19T02:22:37.315Z,12.13
2023-02-19T02:23:36.205Z,12.14
2023-02-19T02:24:36.375Z,12.16
2023-02-19T02:25:36.172Z,12.18
2023-02-19T02:26:38.403Z,12.21
2023-02-19T02:27:36.151Z,12.23
2023-02-19T02:28:36.294Z,12.27
2023-02-19T02:29:36.116Z,12.29
2023-02-19T02:30:36.186Z,12.30
2023-02-19T02:31:36.201Z,12.30
2023-02-19T02:32:36.212Z,12.31
2023-02-19T02:33:36.145Z,12.31
2023-02-19T02:34:36.217Z,12.31
2023-02-19T02:35:36.036Z,12.32
2023-02-19T02:36:36.105Z,12.32
2023-02-19T02:37:36.020Z,12.31
2023-02-19T02:38:36.137Z,12.32
2023-02-19T02:39:35.987Z,12.33
2023-02-19T02:40:36.122Z,12.32
2023-02-19T02:41:35.963Z,12.34
2023-02-19T02:42:36.093Z,12.36
2023-02-19T02:43:35.948Z,12.38
2023-02-19T02:44:57.108Z,12.39
2023-02-19T02:45:36.043Z,12.39
2023-02-19T02:46:36.020Z,12.41
2023-02-19T02:47:35.878Z,12.41
2023-02-19T02:48:35.996Z,12.40
2023-02-19T02:49:35.852Z,12.40
2023-02-19T02:50:38.029Z,12.41
2023-02-19T02:51:35.826Z,12.41
2023-02-19T02:52:36.942Z,12.41
2023-02-19T02:53:35.808Z,12.41
2023-02-19T02:54:36.001Z,12.41
2023-02-19T02:55:35.775Z,12.42
2023-02-19T02:56:35.852Z,12.45
2023-02-19T02:57:35.753Z,12.47
2023-02-19T02:58:35.828Z,12.51
2023-02-19T02:59:35.720Z,12.54
2023-02-19T03:00:35.806Z,12.56
2023-02-19T03:01:35.693Z,12.57
2023-02-19T03:02:35.842Z,12.58
2023-02-19T03:03:35.667Z,12.60
2023-02-19T03:04:35.782Z,12.60
2023-02-19T03:05:35.644Z,12.58
2023-02-19T03:06:35.717Z,12.56
2023-02-19T03:07:35.613Z,12.52
2023-02-19T03:08:36.789Z,12.49
2023-02-19T03:09:35.590Z,12.49
2023-02-19T03:10:35.737Z,12.51
2023-02-19T03:11:35.562Z,12.53
2023-02-19T03:12:36.746Z,12.53
2023-02-19T03:13:35.534Z,12.55
2023-02-19T03:14:36.574Z,12.53
2023-02-19T03:15:35.502Z,12.52
2023-02-19T03:16:35.703Z,12.50
2023-02-19T03:17:35.484Z,12.47
2023-02-19T03:18:35.623Z,12.43
2023-02-19T03:19:35.462Z,12.42
2023-02-19T03:21:44.326Z,11.82
2023-02-19T03:22:44.111Z,11.83
2023-02-19T03:23:44.261Z,12.06
2023-02-19T03:24:44.097Z,12.20
2023-02-19T03:25:44.192Z,12.27
2023-02-19T03:26:44.074Z,12.29
2023-02-19T03:27:45.201Z,12.29
2023-02-19T03:28:44.037Z,12.30
2023-02-19T03:29:44.167Z,12.31
2023-02-19T03:30:44.012Z,12.32
2023-02-19T03:31:44.249Z,12.32
2023-02-19T03:32:43.979Z,12.30
2023-02-19T03:33:47.366Z,12.26
2023-02-19T03:34:43.961Z,12.25
2023-02-19T03:35:44.071Z,12.22
2023-02-19T03:36:43.995Z,12.18
2023-02-19T03:37:44.004Z,12.14
2023-02-19T03:38:43.907Z,12.10
2023-02-19T03:39:47.158Z,12.05
2023-02-19T03:40:43.882Z,12.03
2023-02-19T03:41:43.976Z,12.02
2023-02-19T03:42:43.843Z,12.02
2023-02-19T03:43:44.018Z,12.02
2023-02-19T03:44:43.810Z,12.01
2023-02-19T03:45:45.037Z,11.99
2023-02-19T03:46:43.791Z,11.97
2023-02-19T03:47:43.880Z,11.96
2023-02-19T03:48:43.769Z,11.93
2023-02-19T03:49:43.909Z,11.93
2023-02-19T03:50:43.737Z,11.93
2023-02-19T03:51:43.893Z,11.94
2023-02-19T03:52:43.709Z,11.95
2023-02-19T03:53:43.960Z,11.95
2023-02-19T03:54:43.681Z,11.95
2023-02-19T03:55:43.726Z,11.95
2023-02-19T03:56:43.661Z,11.94
2023-02-19T03:57:44.732Z,11.95
2023-02-19T03:58:43.639Z,11.98
2023-02-19T03:59:43.722Z,11.99
2023-02-19T04:00:43.607Z,11.98
2023-02-19T04:01:43.727Z,11.99
2023-02-19T04:02:43.575Z,11.99
2023-02-19T04:03:45.764Z,11.99
2023-02-19T04:04:43.573Z,11.97
2023-02-19T04:05:43.595Z,11.97
2023-02-19T04:06:43.538Z,11.96
2023-02-19T04:07:43.635Z,11.94
2023-02-19T04:08:43.506Z,11.94
2023-02-19T04:09:46.791Z,11.94
2023-02-19T04:10:43.487Z,11.95
2023-02-19T04:11:43.605Z,11.96
2023-02-19T04:12:43.456Z,11.97
2023-02-19T04:13:43.647Z,12.00
2023-02-19T04:14:43.417Z,12.03
2023-02-19T04:15:43.530Z,12.04
2023-02-19T04:16:43.490Z,12.04
2023-02-19T04:17:43.521Z,12.04
2023-02-19T04:18:43.374Z,12.03
2023-02-19T04:19:43.449Z,12.02
2023-02-19T04:20:43.342Z,12.00
2023-02-19T04:21:43.548Z,11.94
2023-02-19T04:22:43.307Z,11.88
2023-02-19T04:23:43.419Z,11.83
2023-02-19T04:24:43.295Z,11.80
2023-02-19T04:25:43.358Z,11.78
2023-02-19T04:26:43.266Z,11.76
2023-02-19T04:27:43.336Z,11.75
2023-02-19T04:28:43.237Z,11.74
2023-02-19T04:29:43.323Z,11.73
2023-02-19T04:30:43.468Z,11.74
2023-02-19T04:31:43.367Z,11.75
2023-02-19T04:32:43.179Z,11.75
2023-02-19T04:33:43.242Z,11.75
2023-02-19T04:34:43.155Z,11.74
2023-02-19T04:35:43.222Z,11.71
2023-02-19T04:36:43.136Z,11.69
2023-02-19T04:37:43.262Z,11.65
2023-02-19T04:38:43.095Z,11.64
2023-02-19T04:39:44.271Z,11.63
2023-02-19T04:40:43.074Z,11.65
2023-02-19T04:41:43.134Z,11.67
2023-02-19T04:42:43.041Z,11.68
2023-02-19T04:43:43.178Z,11.68
2023-02-19T04:44:43.010Z,11.69
2023-02-19T04:45:45.102Z,11.69
2023-02-19T04:46:43.285Z,11.70
2023-02-19T04:47:43.130Z,11.72
2023-02-19T04:48:42.959Z,11.72
2023-02-19T04:49:43.070Z,11.75
2023-02-19T04:50:42.934Z,11.77
2023-02-19T04:51:43.068Z,11.81
2023-02-19T04:52:42.921Z,11.83
2023-02-19T04:53:43.040Z,11.84
2023-02-19T04:54:42.881Z,11.84
2023-02-19T04:55:42.971Z,11.83
2023-02-19T04:56:42.857Z,11.82
2023-02-19T04:57:43.988Z,11.82
2023-02-19T04:58:42.830Z,11.80
2023-02-19T04:59:42.945Z,11.78
2023-02-19T05:00:42.807Z,11.77
2023-02-19T05:01:43.959Z,11.77
2023-02-19T05:02:42.771Z,11.77
2023-02-19T05:03:42.871Z,11.75
2023-02-19T05:04:42.782Z,11.74
2023-02-19T05:05:42.853Z,11.74
2023-02-19T05:06:42.721Z,11.72
2023-02-19T05:07:42.900Z,11.72
2023-02-19T05:08:42.691Z,11.71
2023-02-19T05:09:42.777Z,11.68
2023-02-19T05:10:42.669Z,11.64
2023-02-19T05:11:42.761Z,11.59
2023-02-19T05:12:42.639Z,11.58
2023-02-19T05:13:44.821Z,11.58
2023-02-19T05:14:42.612Z,11.58
2023-02-19T05:15:42.821Z,11.59
2023-02-19T05:16:42.581Z,11.60
2023-02-19T05:17:42.761Z,11.63
2023-02-19T05:18:42.584Z,11.65
2023-02-19T05:20:05.771Z,11.66
2023-02-19T05:20:42.530Z,11.66
2023-02-19T05:21:42.532Z,11.65
2023-02-19T05:22:42.706Z,11.65
2023-02-19T05:23:42.515Z,11.65
2023-02-19T05:25:52.022Z,11.09
2023-02-19T05:26:51.827Z,11.09
2023-02-19T05:27:52.978Z,11.35
2023-02-19T05:28:51.783Z,11.51
2023-02-19T05:30:12.871Z,11.59
2023-02-19T05:30:51.811Z,11.64
2023-02-19T05:31:51.944Z,11.66
2023-02-19T05:32:51.943Z,11.64
2023-02-19T05:33:51.913Z,11.62
2023-02-19T05:34:51.865Z,11.61
2023-02-19T05:35:51.690Z,11.58
2023-02-19T05:36:51.780Z,11.56
2023-02-19T05:37:51.668Z,11.52
2023-02-19T05:38:51.858Z,11.50
2023-02-19T05:39:51.637Z,11.47
2023-02-19T05:40:51.766Z,11.45
2023-02-19T05:41:51.606Z,11.42
2023-02-19T05:42:51.672Z,11.40
2023-02-19T05:43:51.584Z,11.39
2023-02-19T05:44:51.662Z,11.35
2023-02-19T05:45:51.572Z,11.31
2023-02-19T05:46:53.727Z,11.26
2023-02-19T05:47:51.524Z,11.23
2023-02-19T05:48:52.697Z,11.20
2023-02-19T05:49:51.504Z,11.17
2023-02-19T05:50:51.656Z,11.16
2023-02-19T05:51:51.477Z,11.14
2023-02-19T05:52:53.641Z,11.13
2023-02-19T05:53:51.478Z,11.13
2023-02-19T05:54:51.574Z,11.13
2023-02-19T05:55:51.495Z,11.15
2023-02-19T05:56:51.574Z,11.14
2023-02-19T05:57:51.404Z,11.13
2023-02-19T05:58:51.545Z,11.13
2023-02-19T05:59:51.383Z,11.10
2023-02-19T06:00:51.484Z,11.10
2023-02-19T06:01:51.349Z,11.10
2023-02-19T06:02:51.493Z,11.09
2023-02-19T06:03:51.370Z,11.10
2023-02-19T06:04:52.395Z,11.10
2023-02-19T06:05:51.294Z,11.11
2023-02-19T06:06:51.385Z,11.10
2023-02-19T06:07:51.276Z,11.09
2023-02-19T06:08:51.477Z,11.08
2023-02-19T06:09:51.254Z,11.06
2023-02-19T06:10:52.278Z,11.03
2023-02-19T06:11:51.218Z,10.99
2023-02-19T06:12:51.317Z,10.97
2023-02-19T06:13:51.211Z,10.96
2023-02-19T06:14:52.308Z,10.96
2023-02-19T06:15:51.185Z,10.98
2023-02-19T06:16:51.263Z,11.01
2023-02-19T06:17:51.143Z,11.01
2023-02-19T06:18:51.310Z,11.00
2023-02-19T06:19:51.117Z,10.96
2023-02-19T06:20:53.238Z,10.94
2023-02-19T06:21:51.086Z,10.90
2023-02-19T06:22:51.201Z,10.86
2023-02-19T06:23:51.066Z,10.82
2023-02-19T06:24:51.213Z,10.79
2023-02-19T06:25:51.041Z,10.78
2023-02-19T06:26:51.202Z,10.78
2023-02-19T06:27:51.009Z,10.77
2023-02-19T06:28:51.102Z,10.76
2023-02-19T06:29:50.984Z,10.74
2023-02-19T06:30:51.613Z,10.72
2023-02-19T06:31:51.096Z,10.71
2023-02-19T06:32:54.297Z,10.69
2023-02-19T06:33:51.023Z,10.67
2023-02-19T06:34:51.094Z,10.64
2023-02-19T06:35:50.924Z,10.61
2023-02-19T06:36:52.056Z,10.60
2023-02-19T06:37:50.881Z,10.58
2023-02-19T06:38:51.021Z,10.56
2023-02-19T06:39:50.854Z,10.56
2023-02-19T06:40:51.000Z,10.55
2023-02-19T06:41:50.840Z,10.56
2023-02-19T06:42:50.932Z,10.54
2023-02-19T06:43:50.804Z,10.51
2023-02-19T06:44:50.911Z,10.49
2023-02-19T06:45:50.822Z,10.49
2023-02-19T06:46:50.908Z,10.51
2023-02-19T06:47:50.747Z,10.53
2023-02-19T06:48:51.874Z,10.52
2023-02-19T06:49:50.725Z,10.50
2023-02-19T06:50:50.824Z,10.49
2023-02-19T06:51:50.704Z,10.49
2023-02-19T06:52:50.813Z,10.51
2023-02-19T06:53:50.676Z,10.53
2023-02-19T06:54:50.842Z,10.58
2023-02-19T06:55:50.643Z,10.64
2023-02-19T06:56:50.744Z,10.67
2023-02-19T06:57:50.621Z,10.69
2023-02-19T06:58:50.721Z,10.71
2023-02-19T06:59:50.592Z,10.76
2023-02-19T07:00:50.716Z,10.80
2023-02-19T07:01:50.592Z,10.84
2023-02-19T07:02:50.763Z,10.89
2023-02-19T07:03:50.567Z,10.92
2023-02-19T07:04:50.731Z,10.95
2023-02-19T07:05:50.514Z,10.99
2023-02-19T07:06:50.555Z,11.01
2023-02-19T07:07:50.483Z,11.03
2023-02-19T07:08:50.646Z,11.05
2023-02-19T07:09:50.449Z,11.09
2023-02-19T07:10:50.634Z,11.13
2023-02-19T07:11:50.444Z,11.18
2023-02-19T07:12:51.594Z,11.21
2023-02-19T07:13:50.407Z,11.25
2023-02-19T07:14:50.559Z,11.27
2023-02-19T07:15:52.090Z,11.28
2023-02-19T07:16:50.426Z,11.30
2023-02-19T07:17:50.457Z,11.34
2023-02-19T07:18:51.504Z,11.39
2023-02-19T07:19:50.337Z,11.46
2023-02-19T07:20:50.456Z,11.51
2023-02-19T07:21:50.336Z,11.56
2023-02-19T07:22:50.450Z,11.61
2023-02-19T07:23:50.276Z,11.66
2023-02-19T07:24:51.289Z,11.68
2023-02-19T07:25:50.249Z,11.72
2023-02-19T07:26:50.367Z,11.76
2023-02-19T07:27:50.234Z,11.80
2023-02-19T07:28:50.343Z,11.82
2023-02-19T07:29:50.206Z,11.84
2023-02-19T07:30:50.300Z,11.83
2023-02-19T07:31:50.221Z,11.84
2023-02-19T07:32:50.382Z,11.85
2023-02-19T07:33:50.218Z,11.87
2023-02-19T07:34:50.237Z,11.91
2023-02-19T07:35:50.114Z,11.93
2023-02-19T07:36:50.180Z,11.95
2023-02-19T07:37:50.088Z,11.98
2023-02-19T07:38:50.258Z,12.01
2023-02-19T07:39:50.060Z,12.03
2023-02-19T07:40:50.150Z,12.06
2023-02-19T07:41:50.081Z,12.07
2023-02-19T07:42:50.089Z,12.09
2023-02-19T07:43:50.010Z,12.11
2023-02-19T07:44:50.080Z,12.13
2023-02-19T07:45:50.042Z,12.14
2023-02-19T07:46:50.059Z,12.14
2023-02-19T07:47:49.968Z,12.16
2023-02-19T07:48:50.091Z,12.16
2023-02-19T07:49:49.930Z,12.16
2023-02-19T07:50:50.080Z,12.17
2023-02-19T07:51:49.910Z,12.18
2023-02-19T07:52:49.991Z,12.19
2023-02-19T07:53:49.900Z,12.19
2023-02-19T07:54:50.017Z,12.21
2023-02-19T07:55:49.882Z,12.22
2023-02-19T07:56:50.000Z,12.22
2023-02-19T07:57:49.840Z,12.23
2023-02-19T07:58:49.973Z,12.24
2023-02-19T07:59:49.803Z,12.25
2023-02-19T08:00:50.031Z,12.27
2023-02-19T08:01:49.786Z,12.28
2023-02-19T08:02:49.902Z,12.30
2023-02-19T08:03:50.594Z,12.32
2023-02-19T08:04:49.963Z,12.33
2023-02-19T08:05:49.728Z,12.34
2023-02-19T08:06:49.879Z,12.34
2023-02-19T08:07:49.692Z,12.35
2023-02-19T08:08:49.944Z,12.37
2023-02-19T08:09:49.663Z,12.38
2023-02-19T08:10:49.685Z,12.39
2023-02-19T08:11:49.653Z,12.38
2023-02-19T08:12:49.720Z,12.39
2023-02-19T08:13:49.622Z,12.38
2023-02-19T08:14:49.701Z,12.38
2023-02-19T08:15:49.591Z,12.39
2023-02-19T08:16:49.652Z,12.40
2023-02-19T08:17:49.576Z,12.41
2023-02-19T08:18:49.777Z,12.41
2023-02-19T08:19:49.530Z,12.42
2023-02-19T08:20:49.612Z,12.42
2023-02-19T08:21:49.502Z,12.44
2023-02-19T08:22:49.603Z,12.46
2023-02-19T08:23:51.205Z,12.46
2023-02-19T08:24:49.622Z,12.46
2023-02-19T08:25:49.458Z,12.46
2023-02-19T08:26:49.610Z,12.46
2023-02-19T08:27:49.431Z,12.44
2023-02-19T08:28:49.710Z,12.43
2023-02-19T08:29:49.404Z,12.43
2023-02-19T08:30:49.483Z,12.43
2023-02-19T08:31:49.685Z,12.43
2023-02-19T08:32:49.859Z,12.42
2023-02-19T08:33:49.368Z,12.40
2023-02-19T08:35:11.531Z,12.39
2023-02-19T08:35:49.330Z,12.37
2023-02-19T08:36:49.472Z,12.37
2023-02-19T08:37:49.304Z,12.37
2023-02-19T08:38:50.353Z,12.38
2023-02-19T08:39:49.270Z,12.38
2023-02-19T08:40:49.341Z,12.40
2023-02-19T08:41:49.305Z,12.39
2023-02-19T08:42:50.370Z,12.38
2023-02-19T08:43:49.222Z,12.37
2023-02-19T08:44:49.704Z,12.39
2023-02-19T08:45:49.198Z,12.40
2023-02-19T08:46:49.212Z,12.41
2023-02-19T08:47:49.159Z,12.41
2023-02-19T08:48:49.249Z,12.44
2023-02-19T08:49:49.129Z,12.47
2023-02-19T08:50:49.236Z,12.52
2023-02-19T08:51:49.106Z,12.57
2023-02-19T08:52:49.222Z,12.64
2023-02-19T08:53:49.078Z,12.69
2023-02-19T08:54:49.257Z,12.71
2023-02-19T08:55:49.053Z,12.72
2023-02-19T08:56:49.283Z,12.71
2023-02-19T08:57:50.590Z,12.66
2023-02-19T08:58:49.138Z,12.64
2023-02-19T08:59:48.998Z,12.62
2023-02-19T09:01:10.591Z,12.60
2023-02-19T09:01:48.976Z,12.58
2023-02-19T09:02:49.154Z,12.58
2023-02-19T09:03:48.947Z,12.55
2023-02-19T09:04:49.035Z,12.53
2023-02-19T09:05:48.921Z,12.49
2023-02-19T09:07:10.101Z,12.48
2023-02-19T09:07:48.893Z,12.47
2023-02-19T09:08:49.968Z,12.48
2023-02-19T09:09:48.867Z,12.45
2023-02-19T09:10:48.937Z,12.44
2023-02-19T09:11:49.389Z,12.43
2023-02-19T09:12:48.965Z,12.43
2023-02-19T09:13:48.817Z,12.43
2023-02-19T09:14:49.146Z,12.44
2023-02-19T09:15:48.798Z,12.43
2023-02-19T09:16:48.816Z,12.41
2023-02-19T09:17:48.757Z,12.38
2023-02-19T09:18:48.878Z,12.37
2023-02-19T09:19:50.795Z,12.32
2023-02-19T09:20:48.881Z,12.30
2023-02-19T09:21:48.709Z,12.30
2023-02-19T09:22:48.859Z,12.29
2023-02-19T09:23:48.681Z,12.26
2023-02-19T09:24:48.779Z,12.25
2023-02-19T09:25:48.662Z,12.23
2023-02-19T09:26:48.771Z,12.20
2023-02-19T09:27:48.641Z,12.18
2023-02-19T09:28:48.751Z,12.18
2023-02-19T09:29:48.610Z,12.19
2023-02-19T09:30:48.659Z,12.24
2023-02-19T09:31:48.706Z,12.29
2023-02-19T09:32:48.782Z,12.33
2023-02-19T09:33:48.558Z,12.38
2023-02-19T09:34:48.662Z,12.43
2023-02-19T09:35:48.522Z,12.48
2023-02-19T09:36:50.694Z,12.53
2023-02-19T09:37:48.492Z,12.56
2023-02-19T09:38:48.586Z,12.61
2023-02-19T09:39:48.478Z,12.67
2023-02-19T09:40:48.664Z,12.74
2023-02-19T09:41:48.452Z,12.82
2023-02-19T09:42:48.747Z,12.90
2023-02-19T09:43:48.413Z,12.97
2023-02-19T09:44:48.517Z,13.03
2023-02-19T09:45:48.393Z,13.07
2023-02-19T09:46:48.434Z,13.11
2023-02-19T09:47:48.381Z,13.14
2023-02-19T09:48:50.504Z,13.16
2023-02-19T09:49:48.343Z,13.17
2023-02-19T09:50:48.503Z,13.17
2023-02-19T09:51:48.303Z,13.17
2023-02-19T09:52:49.406Z,13.19
2023-02-19T09:53:48.282Z,13.20
2023-02-19T09:54:48.710Z,13.21
2023-02-19T09:55:48.276Z,13.24
2023-02-19T09:56:48.436Z,13.26
2023-02-19T09:57:48.234Z,13.28
2023-02-19T09:58:48.412Z,13.29
2023-02-19T09:59:48.203Z,13.27
2023-02-19T10:01:11.790Z,13.29
2023-02-19T10:01:48.217Z,13.35
2023-02-19T10:02:48.314Z,13.46
2023-02-19T10:03:48.166Z,13.51
2023-02-19T10:04:48.310Z,13.52
2023-02-19T10:05:48.130Z,13.52
2023-02-19T10:06:48.229Z,13.52
2023-02-19T10:07:48.107Z,13.50
2023-02-19T10:08:48.208Z,13.48
2023-02-19T10:09:48.070Z,13.53
2023-02-19T10:11:09.581Z,13.61
2023-02-19T10:11:48.039Z,13.69
2023-02-19T10:12:48.122Z,13.85
2023-02-19T10:13:48.029Z,14.01
2023-02-19T10:14:48.059Z,14.07
2023-02-19T10:15:48.019Z,14.07
2023-02-19T10:16:48.020Z,14.06
2023-02-19T10:17:47.983Z,14.05
2023-02-19T10:18:48.172Z,14.02
2023-02-19T10:19:47.948Z,13.96
2023-02-19T10:20:48.024Z,13.92
2023-02-19T10:21:47.909Z,13.90
2023-02-19T10:22:49.111Z,13.89
2023-02-19T10:23:47.879Z,13.88
2023-02-19T10:24:48.041Z,13.87
2023-02-19T10:25:47.849Z,13.84
2023-02-19T10:26:48.020Z,13.90
2023-02-19T10:27:47.840Z,14.02
2023-02-19T10:28:48.019Z,14.14
2023-02-19T10:29:47.799Z,14.21
2023-02-19T10:30:47.878Z,14.25
2023-02-19T10:31:47.874Z,14.28
2023-02-19T10:32:51.103Z,14.32
2023-02-19T10:33:47.772Z,14.35
2023-02-19T10:35:09.818Z,14.36
2023-02-19T10:35:47.731Z,14.42
2023-02-19T10:36:47.711Z,14.47
2023-02-19T10:37:47.830Z,14.48
2023-02-19T10:38:47.701Z,14.53
2023-02-19T10:39:47.892Z,14.64
2023-02-19T10:40:47.660Z,14.76
2023-02-19T10:41:47.801Z,14.88
2023-02-19T10:42:47.637Z,14.96
2023-02-19T10:43:47.732Z,15.02
2023-02-19T10:44:47.612Z,15.15
2023-02-19T10:45:47.680Z,15.29
2023-02-19T10:46:47.627Z,15.41
2023-02-19T10:47:47.712Z,15.46
2023-02-19T10:48:47.552Z,15.51
2023-02-19T10:49:47.653Z,15.56
2023-02-19T10:50:47.543Z,15.59
2023-02-19T10:51:49.754Z,15.58
2023-02-19T10:52:47.491Z,15.58
2023-02-19T10:53:47.613Z,15.64
2023-02-19T10:54:47.472Z,15.74
2023-02-19T10:55:47.541Z,15.77
2023-02-19T10:56:47.547Z,15.72
2023-02-19T10:57:47.576Z,15.65
2023-02-19T10:58:47.431Z,15.58
2023-02-19T10:59:47.620Z,15.54
2023-02-19T11:00:47.416Z,15.52
2023-02-19T11:01:47.472Z,15.55
2023-02-19T11:02:47.390Z,15.52
2023-02-19T11:03:47.484Z,15.53
2023-02-19T11:04:47.403Z,15.55
2023-02-19T11:05:47.410Z,15.57
2023-02-19T11:06:47.313Z,15.60
2023-02-19T11:07:47.444Z,15.64
2023-02-19T11:08:47.312Z,15.65
2023-02-19T11:09:48.415Z,15.66
2023-02-19T11:10:47.262Z,15.68
2023-02-19T11:11:47.311Z,15.69
2023-02-19T11:12:47.250Z,15.69
2023-02-19T11:14:08.282Z,15.70
2023-02-19T11:14:47.201Z,15.72
2023-02-19T11:15:47.306Z,15.76
2023-02-19T11:16:47.178Z,15.76
2023-02-19T11:17:47.324Z,15.75
2023-02-19T11:18:47.152Z,15.70
2023-02-19T11:19:47.313Z,15.69
2023-02-19T11:20:47.124Z,15.71
2023-02-19T11:21:47.192Z,15.74
2023-02-19T11:22:47.092Z,15.79
2023-02-19T11:23:47.250Z,15.84
2023-02-19T11:24:47.063Z,15.86
2023-02-19T11:25:50.398Z,15.92
2023-02-19T11:26:47.044Z,15.96
2023-02-19T11:27:47.204Z,16.01
2023-02-19T11:28:47.033Z,16.09
2023-02-19T11:29:47.161Z,16.14
2023-02-19T11:30:46.986Z,16.22
2023-02-19T11:31:48.208Z,16.29
2023-02-19T11:32:46.974Z,16.30
2023-02-19T11:33:47.141Z,16.30
2023-02-19T11:34:46.935Z,16.31
2023-02-19T11:35:47.036Z,16.34
2023-02-19T11:36:46.925Z,16.39
2023-02-19T11:37:47.046Z,16.45
2023-02-19T11:38:46.877Z,16.53
2023-02-19T11:39:47.036Z,16.58
2023-02-19T11:40:46.865Z,16.65
2023-02-19T11:41:46.972Z,16.68
2023-02-19T11:42:46.843Z,16.71
2023-02-19T11:43:46.940Z,16.76
2023-02-19T11:44:46.817Z,16.78
2023-02-19T11:45:46.926Z,16.79
2023-02-19T11:46:46.973Z,16.75
2023-02-19T11:47:46.969Z,16.70
2023-02-19T11:48:46.759Z,16.68
2023-02-19T11:49:46.841Z,16.65
2023-02-19T11:50:46.730Z,16.63
2023-02-19T11:51:52.178Z,16.63
2023-02-19T11:52:47.701Z,16.58
2023-02-19T11:53:49.602Z,16.54
2023-02-19T11:54:46.668Z,16.52
2023-02-19T11:55:46.857Z,16.49
2023-02-19T11:56:46.641Z,16.49
2023-02-19T11:57:46.730Z,16.50
2023-02-19T11:58:46.610Z,16.50
2023-02-19T11:59:47.697Z,16.50
2023-02-19T12:00:46.588Z,16.51
2023-02-19T12:01:46.833Z,16.51
2023-02-19T12:02:46.560Z,16.50
2023-02-19T12:03:46.878Z,16.50
2023-02-19T12:04:46.559Z,16.50
2023-02-19T12:05:46.689Z,16.50
2023-02-19T12:06:46.500Z,16.48
2023-02-19T12:07:46.572Z,16.45
2023-02-19T12:08:46.492Z,16.30
2023-02-19T12:09:46.537Z,16.10
2023-02-19T12:10:46.448Z,15.94
2023-02-19T12:11:47.722Z,15.77
2023-02-19T12:12:46.429Z,15.65
2023-02-19T12:13:46.562Z,15.53
2023-02-19T12:14:46.403Z,15.45
2023-02-19T12:15:46.442Z,15.39
2023-02-19T12:16:46.399Z,15.35
2023-02-19T12:17:46.670Z,15.31
2023-02-19T12:18:46.349Z,15.23
2023-02-19T12:19:46.487Z,15.10
2023-02-19T12:20:46.318Z,14.95
2023-02-19T12:21:46.610Z,14.84
2023-02-19T12:22:46.289Z,14.70
2023-02-19T12:23:47.418Z,14.55
2023-02-19T12:24:46.262Z,14.42
2023-02-19T12:25:46.371Z,14.32
2023-02-19T12:26:46.229Z,14.25
2023-02-19T12:27:46.319Z,14.17
2023-02-19T12:28:46.229Z,14.09
2023-02-19T12:29:46.287Z,13.96
2023-02-19T12:30:46.296Z,13.81
2023-02-19T12:31:46.402Z,13.72
2023-02-19T12:32:46.162Z,13.68
2023-02-19T12:33:46.272Z,13.64
2023-02-19T12:34:46.149Z,13.59
2023-02-19T12:35:46.210Z,13.52
2023-02-19T12:36:46.109Z,13.50
2023-02-19T12:37:49.954Z,13.50
2023-02-19T12:38:46.085Z,13.51
2023-02-19T12:39:46.160Z,13.51
2023-02-19T12:40:46.051Z,13.51
2023-02-19T12:44:13.535Z,13.15
2023-02-19T12:45:13.305Z,13.15
2023-02-19T12:46:13.912Z,13.39
2023-02-19T12:47:13.269Z,13.55
2023-02-19T12:48:13.358Z,13.65
2023-02-19T12:49:13.285Z,13.74
2023-02-19T12:50:13.330Z,13.80
2023-02-19T12:51:13.219Z,13.87
2023-02-19T12:52:14.350Z,13.91
2023-02-19T12:53:13.188Z,13.95
2023-02-19T12:54:13.338Z,14.00
2023-02-19T12:55:13.159Z,14.06
2023-02-19T12:56:13.398Z,14.11
2023-02-19T12:57:13.161Z,14.11
2023-02-19T12:58:13.212Z,14.07
2023-02-19T12:59:13.116Z,14.01